South Macon, Georgia
Current Conditions -  °F | °C
As of 3:53 PM on Thursday 23 Oct 2014 (Local Time) from KMCN Reporting Station
Clear Clear  
Wind Chill: 71°   Ceiling: Unl
Heat Index: 71°   Visibility: 10mi
Dew Point: 42°   Wind: 3mph
Humidity: 35%   Direction: NA
Pressure: 30.02"   Gusts: NA
Location:  32.7882°N, 83.6652°W
Report Text: KMCN 231953Z VRB03KT 10SM CLR 22/06 A3002 RMK AO2 SLP165 T02170056
Loading
Personal Weather Stations






























Interactive Weather Map
Tropical Storm Tracking
New forecast layout! Learn more

10-Day Weather Forecast

Advertisements
Track Severe Weather on mobile